createdAt,value
2023-07-17T00:00:02.570Z,1.05
2023-07-17T00:00:16.673Z,0.88
2023-07-17T00:00:32.094Z,1.10
2023-07-17T00:00:48.113Z,1.00
2023-07-17T00:01:00.151Z,0.80
2023-07-17T00:01:12.157Z,0.75
2023-07-17T00:01:24.333Z,1.00
2023-07-17T00:01:36.458Z,1.10
2023-07-17T00:01:48.551Z,0.98
2023-07-17T00:02:00.584Z,1.52
2023-07-17T00:02:12.581Z,2.05
2023-07-17T00:02:25.166Z,2.42
2023-07-17T00:02:37.159Z,1.48
2023-07-17T00:02:49.225Z,1.40
2023-07-17T00:03:01.391Z,1.38
2023-07-17T00:03:13.663Z,1.45
2023-07-17T00:03:26.080Z,1.10
2023-07-17T00:03:38.204Z,0.80
2023-07-17T00:03:51.326Z,0.68
2023-07-17T00:04:03.561Z,0.85
2023-07-17T00:04:15.631Z,0.90
2023-07-17T00:04:27.620Z,1.00
2023-07-17T00:04:39.566Z,1.00
2023-07-17T00:04:51.752Z,0.80
2023-07-17T00:05:05.315Z,0.70
2023-07-17T00:05:17.700Z,1.10
2023-07-17T00:05:29.682Z,1.05
2023-07-17T00:05:41.700Z,1.10
2023-07-17T00:05:53.717Z,1.30
2023-07-17T00:06:06.125Z,1.70
2023-07-17T00:06:18.166Z,1.48
2023-07-17T00:06:30.834Z,0.88
2023-07-17T00:06:42.797Z,1.13
2023-07-17T00:06:54.763Z,1.70
2023-07-17T00:07:06.752Z,1.77
2023-07-17T00:07:18.698Z,1.20
2023-07-17T00:07:31.351Z,1.00
2023-07-17T00:07:43.458Z,0.88
2023-07-17T00:07:55.423Z,0.82
2023-07-17T00:08:07.596Z,1.20
2023-07-17T00:08:19.615Z,1.35
2023-07-17T00:08:31.709Z,0.80
2023-07-17T00:08:43.692Z,0.80
2023-07-17T00:08:55.622Z,0.77
2023-07-17T00:09:07.853Z,1.20
2023-07-17T00:09:19.776Z,1.17
2023-07-17T00:09:31.880Z,1.25
2023-07-17T00:09:44.575Z,1.13
2023-07-17T00:09:56.698Z,1.00
2023-07-17T00:10:10.272Z,0.93
2023-07-17T00:10:22.342Z,0.98
2023-07-17T00:10:34.302Z,0.90
2023-07-17T00:10:46.338Z,0.90
2023-07-17T00:10:59.305Z,0.80
2023-07-17T00:11:11.275Z,0.70
2023-07-17T00:11:23.632Z,1.25
2023-07-17T00:11:35.626Z,1.40
2023-07-17T00:11:47.646Z,1.45
2023-07-17T00:11:59.643Z,0.95
2023-07-17T00:12:11.623Z,0.80
2023-07-17T00:12:23.638Z,0.95
2023-07-17T00:12:37.403Z,0.82
2023-07-17T00:12:49.449Z,0.95
2023-07-17T00:13:01.510Z,0.98
2023-07-17T00:13:13.531Z,1.05
2023-07-17T00:13:26.196Z,0.98
2023-07-17T00:13:38.151Z,0.80
2023-07-17T00:13:50.120Z,0.95
2023-07-17T00:14:02.139Z,0.90
2023-07-17T00:14:14.569Z,1.33
2023-07-17T00:14:26.673Z,0.95
2023-07-17T00:14:38.714Z,1.00
2023-07-17T00:14:50.744Z,0.73
2023-07-17T00:15:06.202Z,0.82
2023-07-17T00:15:18.191Z,0.60
2023-07-17T00:15:30.173Z,0.60
2023-07-17T00:15:43.074Z,0.50
2023-07-17T00:15:55.256Z,0.70
2023-07-17T00:16:07.213Z,0.80
2023-07-17T00:16:20.962Z,0.90
2023-07-17T00:16:36.295Z,0.75
2023-07-17T00:16:48.581Z,1.20
2023-07-17T00:17:00.568Z,1.52
2023-07-17T00:17:13.480Z,1.77
2023-07-17T00:17:25.737Z,1.75
2023-07-17T00:17:37.884Z,1.27
2023-07-17T00:17:49.968Z,1.20
2023-07-17T00:18:02.193Z,0.85
2023-07-17T00:18:14.385Z,1.10
2023-07-17T00:18:26.384Z,1.40
2023-07-17T00:18:39.226Z,1.15
2023-07-17T00:18:51.166Z,0.95
2023-07-17T00:19:03.138Z,0.75
2023-07-17T00:19:15.060Z,0.90
2023-07-17T00:19:27.209Z,1.27
2023-07-17T00:19:40.113Z,0.90
2023-07-17T00:19:57.154Z,0.57
2023-07-17T00:20:12.831Z,0.80
2023-07-17T00:20:24.786Z,0.88
2023-07-17T00:20:36.806Z,0.80
2023-07-17T00:20:48.861Z,0.80
2023-07-17T00:21:00.928Z,1.00
2023-07-17T00:21:12.900Z,0.90
2023-07-17T00:21:25.223Z,0.70
2023-07-17T00:21:37.225Z,0.60
2023-07-17T00:21:49.192Z,0.57
2023-07-17T00:22:01.232Z,0.60
2023-07-17T00:22:13.192Z,0.73
2023-07-17T00:22:25.677Z,1.42
2023-07-17T00:22:37.860Z,1.60
2023-07-17T00:22:49.846Z,1.27
2023-07-17T00:23:02.051Z,1.70
2023-07-17T00:23:14.122Z,1.80
2023-07-17T00:23:26.155Z,1.42
2023-07-17T00:23:38.130Z,0.98
2023-07-17T00:23:50.184Z,0.88
2023-07-17T00:24:02.121Z,0.75
2023-07-17T00:24:14.410Z,0.50
2023-07-17T00:24:26.428Z,1.10
2023-07-17T00:24:38.356Z,1.17
2023-07-17T00:24:53.754Z,1.08
2023-07-17T00:25:06.003Z,0.90
2023-07-17T00:25:18.387Z,0.70
2023-07-17T00:25:30.506Z,0.50
2023-07-17T00:25:42.453Z,0.63
2023-07-17T00:25:54.429Z,1.30
2023-07-17T00:26:06.443Z,1.40
2023-07-17T00:26:18.658Z,1.07
2023-07-17T00:26:31.379Z,1.50
2023-07-17T00:26:43.667Z,1.65
2023-07-17T00:26:55.715Z,1.15
2023-07-17T00:27:07.664Z,0.88
2023-07-17T00:27:20.629Z,1.00
2023-07-17T00:27:32.894Z,1.50
2023-07-17T00:27:44.850Z,1.52
2023-07-17T00:27:56.879Z,1.00
2023-07-17T00:28:08.840Z,1.10
2023-07-17T00:28:20.768Z,1.30
2023-07-17T00:28:32.888Z,0.70
2023-07-17T00:28:44.849Z,0.65
2023-07-17T00:29:36.370Z,0.88
2023-07-17T00:29:51.540Z,0.98
2023-07-17T00:30:04.276Z,0.90
2023-07-17T00:30:16.317Z,0.70
2023-07-17T00:30:31.881Z,0.65
2023-07-17T00:30:44.263Z,1.23
2023-07-17T00:30:56.330Z,1.17
2023-07-17T00:31:08.436Z,0.73
2023-07-17T00:31:20.913Z,0.70
2023-07-17T00:31:33.137Z,0.70
2023-07-17T00:31:45.234Z,0.60
2023-07-17T00:31:58.754Z,0.60
2023-07-17T00:32:14.781Z,0.50
2023-07-17T00:32:26.876Z,0.68
2023-07-17T00:32:39.345Z,1.10
2023-07-17T00:32:51.935Z,0.90
2023-07-17T00:33:04.024Z,1.08
2023-07-17T00:33:16.350Z,1.30
2023-07-17T00:33:28.600Z,1.30
2023-07-17T00:33:40.621Z,0.70
2023-07-17T00:33:52.563Z,0.60
2023-07-17T00:34:04.541Z,0.68
2023-07-17T00:34:17.004Z,0.63
2023-07-17T00:34:28.963Z,0.50
2023-07-17T00:34:42.616Z,0.55
2023-07-17T00:34:54.571Z,0.77
2023-07-17T00:35:06.975Z,0.88
2023-07-17T00:35:18.984Z,0.65
2023-07-17T00:35:30.952Z,0.60
2023-07-17T00:35:43.027Z,0.60
2023-07-17T00:35:55.012Z,0.68
2023-07-17T00:36:07.230Z,0.70
2023-07-17T00:36:19.170Z,0.85
2023-07-17T00:36:31.169Z,0.75
2023-07-17T00:36:43.197Z,1.00
2023-07-17T00:36:55.297Z,0.93
2023-07-17T00:37:07.763Z,0.55
2023-07-17T00:37:19.927Z,0.80
2023-07-17T00:37:31.898Z,0.80
2023-07-17T00:37:44.315Z,0.65
2023-07-17T00:37:56.297Z,0.60
2023-07-17T00:38:08.298Z,0.73
2023-07-17T00:38:20.753Z,0.82
2023-07-17T00:38:32.710Z,0.95
2023-07-17T00:38:44.902Z,1.02
2023-07-17T00:38:56.863Z,1.03
2023-07-17T00:39:08.945Z,0.80
2023-07-17T00:39:21.528Z,0.80
2023-07-17T00:39:34.204Z,1.20
2023-07-17T00:39:46.462Z,1.20
2023-07-17T00:39:58.827Z,1.10
2023-07-17T00:40:11.061Z,0.75
2023-07-17T00:40:23.069Z,0.90
2023-07-17T00:40:39.986Z,1.10
2023-07-17T00:40:51.979Z,0.82
2023-07-17T00:41:04.164Z,0.70
2023-07-17T00:41:16.310Z,0.80
2023-07-17T00:41:28.656Z,0.70
2023-07-17T00:41:40.678Z,0.50
2023-07-17T00:41:52.684Z,0.40
2023-07-17T00:42:04.968Z,0.32
2023-07-17T00:42:16.947Z,0.60
2023-07-17T00:42:29.001Z,0.70
2023-07-17T00:42:41.295Z,2.35
2023-07-17T00:42:58.817Z,2.42
2023-07-17T00:43:13.513Z,1.10
2023-07-17T00:43:25.529Z,0.70
2023-07-17T00:43:37.750Z,0.82
2023-07-17T00:43:49.739Z,0.75
2023-07-17T00:44:01.736Z,0.95
2023-07-17T00:44:13.866Z,1.00
2023-07-17T00:44:26.034Z,0.82
2023-07-17T00:44:39.272Z,0.60
2023-07-17T00:44:52.088Z,0.70
2023-07-17T00:45:04.723Z,0.93
2023-07-17T00:45:16.765Z,1.90
2023-07-17T00:45:32.818Z,2.50
2023-07-17T00:45:45.979Z,1.80
2023-07-17T00:45:58.500Z,1.35
2023-07-17T00:46:10.810Z,0.98
2023-07-17T00:46:22.976Z,0.57
2023-07-17T00:46:35.390Z,0.90
2023-07-17T00:46:49.735Z,1.20
2023-07-17T00:47:01.884Z,1.17
2023-07-17T00:47:14.074Z,1.20
2023-07-17T00:47:26.170Z,0.80
2023-07-17T00:47:38.532Z,0.85
2023-07-17T00:47:50.621Z,1.20
2023-07-17T00:48:04.490Z,1.10
2023-07-17T00:48:16.575Z,0.98
2023-07-17T00:48:28.652Z,0.70
2023-07-17T00:48:40.876Z,0.90
2023-07-17T00:48:52.985Z,1.02
2023-07-17T00:49:07.560Z,1.40
2023-07-17T00:49:21.718Z,1.25
2023-07-17T00:49:34.604Z,0.80
2023-07-17T00:49:49.024Z,1.27
2023-07-17T00:50:02.432Z,1.42
2023-07-17T00:50:14.498Z,0.90
2023-07-17T00:50:28.272Z,0.68
2023-07-17T00:50:40.706Z,0.57
2023-07-17T00:50:52.723Z,0.50
2023-07-17T00:51:04.845Z,0.60
2023-07-17T00:51:17.175Z,0.65
2023-07-17T00:51:29.410Z,0.60
2023-07-17T00:51:42.586Z,0.82
2023-07-17T00:51:57.355Z,0.90
2023-07-17T00:52:11.261Z,0.63
2023-07-17T00:52:23.862Z,0.60
2023-07-17T00:52:39.715Z,0.65
2023-07-17T00:52:51.881Z,0.70
2023-07-17T00:53:05.074Z,0.70
2023-07-17T00:53:17.667Z,0.70
2023-07-17T00:53:29.803Z,0.90
2023-07-17T00:53:43.768Z,1.17
2023-07-17T00:53:56.643Z,1.90
2023-07-17T00:54:11.150Z,1.80
2023-07-17T00:54:23.557Z,1.00
2023-07-17T00:54:36.458Z,0.93
2023-07-17T00:54:49.635Z,1.17
2023-07-17T00:55:02.284Z,1.30
2023-07-17T00:55:15.658Z,0.90
2023-07-17T00:55:27.901Z,0.87
2023-07-17T00:55:39.888Z,0.98
2023-07-17T00:55:51.868Z,1.13
2023-07-17T00:56:04.003Z,1.05
2023-07-17T00:56:16.566Z,0.77
2023-07-17T00:56:29.904Z,0.82
2023-07-17T00:56:43.232Z,0.82
2023-07-17T00:56:58.087Z,0.70
2023-07-17T00:57:12.413Z,1.98
2023-07-17T00:57:26.120Z,2.05
2023-07-17T00:57:39.049Z,0.70
2023-07-17T00:57:52.808Z,1.08
2023-07-17T00:58:05.442Z,1.10
2023-07-17T00:58:17.535Z,0.70
2023-07-17T00:58:29.648Z,0.70
2023-07-17T00:58:41.993Z,0.88
2023-07-17T00:58:54.011Z,1.05
2023-07-17T00:59:06.533Z,1.70
2023-07-17T00:59:18.752Z,1.70
2023-07-17T00:59:31.691Z,0.63
2023-07-17T00:59:43.810Z,0.70
2023-07-17T00:59:55.937Z,0.77
2023-07-17T01:00:10.103Z,0.98
2023-07-17T01:00:24.410Z,1.33
2023-07-17T01:00:37.432Z,1.15
2023-07-17T01:00:49.635Z,1.20
2023-07-17T01:01:04.041Z,1.27
2023-07-17T01:01:16.613Z,1.40
2023-07-17T01:01:29.468Z,1.42
2023-07-17T01:01:42.952Z,0.80
2023-07-17T01:01:55.499Z,1.00
2023-07-17T01:02:09.533Z,1.00
2023-07-17T01:02:23.474Z,0.80
2023-07-17T01:02:40.320Z,1.15
2023-07-17T01:02:54.327Z,1.13
2023-07-17T01:03:06.618Z,0.80
2023-07-17T01:03:18.798Z,1.80
2023-07-17T01:03:31.737Z,2.17
2023-07-17T01:03:43.823Z,1.00
2023-07-17T01:03:56.412Z,0.65
2023-07-17T01:04:09.718Z,0.50
2023-07-17T01:04:21.671Z,0.50
2023-07-17T01:04:33.639Z,0.73
2023-07-17T01:04:48.781Z,0.82
2023-07-17T01:05:00.848Z,0.70
2023-07-17T01:05:12.842Z,0.50
2023-07-17T01:05:25.059Z,0.63
2023-07-17T01:05:37.401Z,0.95
2023-07-17T01:05:49.370Z,0.90
2023-07-17T01:06:01.392Z,0.93
2023-07-17T01:06:13.373Z,1.25
2023-07-17T01:06:28.460Z,1.40
2023-07-17T01:06:40.541Z,1.10
2023-07-17T01:06:52.560Z,1.85
2023-07-17T01:07:04.803Z,1.48
2023-07-17T01:07:17.146Z,1.45
2023-07-17T01:07:29.068Z,1.00
2023-07-17T01:07:41.244Z,0.88
2023-07-17T01:07:55.458Z,0.80
2023-07-17T01:08:07.458Z,0.90
2023-07-17T01:08:19.413Z,0.90
2023-07-17T01:08:32.388Z,0.82
2023-07-17T01:08:44.488Z,1.17
2023-07-17T01:08:56.523Z,1.08
2023-07-17T01:09:11.008Z,0.65
2023-07-17T01:09:23.172Z,0.50
2023-07-17T01:09:36.660Z,0.60
2023-07-17T01:09:49.367Z,0.80
2023-07-17T01:10:01.705Z,0.85
2023-07-17T01:10:13.765Z,0.90
2023-07-17T01:10:26.884Z,1.02
2023-07-17T01:10:38.896Z,0.80
2023-07-17T01:10:51.622Z,0.68
2023-07-17T01:11:03.813Z,0.73
2023-07-17T01:11:16.936Z,0.73
2023-07-17T01:11:29.021Z,0.70
2023-07-17T01:11:41.075Z,0.73
2023-07-17T01:11:53.059Z,0.80
2023-07-17T01:12:05.424Z,0.80
2023-07-17T01:12:17.401Z,0.55
2023-07-17T01:12:29.601Z,0.60
2023-07-17T01:12:41.656Z,0.68
2023-07-17T01:12:53.728Z,0.57
2023-07-17T01:13:05.690Z,1.00
2023-07-17T01:13:17.716Z,1.08
2023-07-17T01:13:29.650Z,0.60
2023-07-17T01:13:45.749Z,0.60
2023-07-17T01:13:57.719Z,0.68
2023-07-17T01:14:19.699Z,0.88
2023-07-17T01:14:31.696Z,0.80
2023-07-17T01:14:43.748Z,0.80
2023-07-17T01:14:55.884Z,0.90
2023-07-17T01:15:08.229Z,0.90
2023-07-17T01:15:20.298Z,1.00
2023-07-17T01:15:32.245Z,1.15
2023-07-17T01:15:44.207Z,1.25
2023-07-17T01:15:56.243Z,0.98
2023-07-17T01:16:08.679Z,0.80
2023-07-17T01:16:20.674Z,0.70
2023-07-17T01:16:32.721Z,0.70
2023-07-17T01:16:46.977Z,0.75
2023-07-17T01:16:59.055Z,0.75
2023-07-17T01:17:11.107Z,0.70
2023-07-17T01:17:23.852Z,1.00
2023-07-17T01:17:35.841Z,0.98
2023-07-17T01:17:47.904Z,0.95
2023-07-17T01:17:59.973Z,0.90
2023-07-17T01:18:12.021Z,0.80
2023-07-17T01:18:23.983Z,0.75
2023-07-17T01:18:35.962Z,0.80
2023-07-17T01:18:47.932Z,0.80
2023-07-17T01:18:59.939Z,0.73
2023-07-17T01:19:11.881Z,0.77
2023-07-17T01:19:23.854Z,0.70
2023-07-17T01:19:35.790Z,0.60
2023-07-17T01:19:47.796Z,0.60
2023-07-17T01:19:59.793Z,0.82
2023-07-17T01:20:12.091Z,0.80
2023-07-17T01:20:24.142Z,1.13
2023-07-17T01:20:36.145Z,0.90
2023-07-17T01:20:49.546Z,0.80
2023-07-17T01:21:02.657Z,1.08
2023-07-17T01:21:18.217Z,1.20
2023-07-17T01:21:36.345Z,0.70
2023-07-17T01:21:57.803Z,0.90
2023-07-17T01:22:23.030Z,0.68
2023-07-17T01:22:42.675Z,0.80
2023-07-17T01:22:57.766Z,0.70
2023-07-17T01:23:10.431Z,1.10
2023-07-17T01:23:22.414Z,1.17
2023-07-17T01:23:34.614Z,1.08
2023-07-17T01:23:46.713Z,0.80
2023-07-17T01:23:58.686Z,0.73
2023-07-17T01:24:10.712Z,0.57
2023-07-17T01:24:22.695Z,0.70
2023-07-17T01:24:34.700Z,0.75
2023-07-17T01:24:46.742Z,0.68
2023-07-17T01:24:58.727Z,0.70
2023-07-17T01:25:10.695Z,0.80
2023-07-17T01:25:22.797Z,0.70
2023-07-17T01:25:35.189Z,0.63
2023-07-17T01:25:47.252Z,0.90
2023-07-17T01:25:59.560Z,0.98
2023-07-17T01:26:13.562Z,1.05
2023-07-17T01:26:25.576Z,0.90
2023-07-17T01:26:37.571Z,1.10
2023-07-17T01:26:49.664Z,0.98
2023-07-17T01:27:01.726Z,0.80
2023-07-17T01:27:14.251Z,0.70
2023-07-17T01:27:26.251Z,0.60
2023-07-17T01:27:38.238Z,0.77
2023-07-17T01:27:50.273Z,0.90
2023-07-17T01:28:02.297Z,0.98
2023-07-17T01:28:14.473Z,0.95
2023-07-17T01:28:26.887Z,0.95
2023-07-17T01:28:39.182Z,1.20
2023-07-17T01:28:51.273Z,1.60
2023-07-17T01:29:03.422Z,1.00
2023-07-17T01:29:15.797Z,0.65
2023-07-17T01:29:27.874Z,0.60
2023-07-17T01:29:39.874Z,0.60
2023-07-17T01:29:51.878Z,0.60
2023-07-17T01:30:06.152Z,0.65
2023-07-17T01:30:18.502Z,0.77
2023-07-17T01:30:30.531Z,0.82
2023-07-17T01:30:42.612Z,0.98
2023-07-17T01:30:54.657Z,1.00
2023-07-17T01:31:07.213Z,1.02
2023-07-17T01:31:19.738Z,0.80
2023-07-17T01:31:32.191Z,0.88
2023-07-17T01:31:44.416Z,2.15
2023-07-17T01:31:56.387Z,2.30
2023-07-17T01:32:08.623Z,1.73
2023-07-17T01:32:21.862Z,0.80
2023-07-17T01:32:34.195Z,0.80
2023-07-17T01:32:46.226Z,0.80
2023-07-17T01:32:58.280Z,0.75
2023-07-17T01:33:10.561Z,0.80
2023-07-17T01:33:22.745Z,0.88
2023-07-17T01:33:35.330Z,0.70
2023-07-17T01:33:47.401Z,0.75
2023-07-17T01:33:59.476Z,0.80
2023-07-17T01:34:11.482Z,0.80
2023-07-17T01:34:23.584Z,1.00
2023-07-17T01:34:36.789Z,0.80
2023-07-17T01:34:48.798Z,0.73
2023-07-17T01:35:00.731Z,0.68
2023-07-17T01:35:12.775Z,0.70
2023-07-17T01:35:24.771Z,0.68
2023-07-17T01:35:36.711Z,0.70
2023-07-17T01:35:48.646Z,0.70
2023-07-17T01:36:01.910Z,1.20
2023-07-17T01:36:14.925Z,1.25
2023-07-17T01:36:27.683Z,1.63
2023-07-17T01:36:39.692Z,1.30
2023-07-17T01:36:52.766Z,0.80
2023-07-17T01:37:05.367Z,0.70
2023-07-17T01:37:17.372Z,1.38
2023-07-17T01:37:30.002Z,1.40
2023-07-17T01:37:43.946Z,0.98
2023-07-17T01:37:55.947Z,0.50
2023-07-17T01:38:09.273Z,0.80
2023-07-17T01:38:21.322Z,1.05
2023-07-17T01:38:34.776Z,1.05
2023-07-17T01:38:46.888Z,0.88
2023-07-17T01:38:58.920Z,1.00
2023-07-17T01:39:11.107Z,1.10
2023-07-17T01:39:25.628Z,1.00
2023-07-17T01:39:38.277Z,1.77
2023-07-17T01:39:50.280Z,1.80
2023-07-17T01:40:03.780Z,1.00
2023-07-17T01:40:17.130Z,0.70
2023-07-17T01:40:29.080Z,0.68
2023-07-17T01:40:41.066Z,0.80
2023-07-17T01:40:53.564Z,1.00
2023-07-17T01:41:05.533Z,1.17
2023-07-17T01:41:17.765Z,1.05
2023-07-17T01:41:30.082Z,1.02
2023-07-17T01:41:42.058Z,1.00
2023-07-17T01:41:54.194Z,2.05
2023-07-17T01:42:06.319Z,2.10
2023-07-17T01:42:18.348Z,1.33
2023-07-17T01:42:30.356Z,0.95
2023-07-17T01:42:42.325Z,1.45
2023-07-17T01:42:54.303Z,2.58
2023-07-17T01:43:06.452Z,2.60
2023-07-17T01:43:18.641Z,1.00
2023-07-17T01:43:30.651Z,1.15
2023-07-17T01:43:42.646Z,1.20
2023-07-17T01:43:54.581Z,1.05
2023-07-17T01:44:06.621Z,0.77
2023-07-17T01:44:18.538Z,0.60
2023-07-17T01:44:31.903Z,1.00
2023-07-17T01:44:43.848Z,1.20
2023-07-17T01:44:55.894Z,0.80
2023-07-17T01:45:08.631Z,0.70
2023-07-17T01:45:20.764Z,0.75
2023-07-17T01:45:32.704Z,0.90
2023-07-17T01:45:44.697Z,0.70
2023-07-17T01:45:56.660Z,0.50
2023-07-17T01:46:09.327Z,0.50
2023-07-17T01:46:21.412Z,0.55
2023-07-17T01:46:34.133Z,0.70
2023-07-17T01:46:46.301Z,1.00
2023-07-17T01:46:59.560Z,1.20
2023-07-17T01:47:11.666Z,1.05
2023-07-17T01:47:24.802Z,1.20
2023-07-17T01:47:37.304Z,1.27
2023-07-17T01:47:50.645Z,0.98
2023-07-17T01:48:02.768Z,1.00
2023-07-17T01:48:15.884Z,1.10
2023-07-17T01:48:28.029Z,1.40
2023-07-17T01:48:40.031Z,1.55
2023-07-17T01:48:52.060Z,1.10
2023-07-17T01:49:04.260Z,1.05
2023-07-17T01:49:16.402Z,1.00
2023-07-17T01:49:28.432Z,1.00
2023-07-17T01:49:41.992Z,0.90
2023-07-17T01:49:53.968Z,0.90
2023-07-17T01:50:06.994Z,2.20
2023-07-17T01:50:19.421Z,1.90
2023-07-17T01:50:31.419Z,2.05
2023-07-17T01:50:43.421Z,0.90
2023-07-17T01:50:55.405Z,0.95
2023-07-17T01:51:07.470Z,1.08
2023-07-17T01:51:19.629Z,1.10
2023-07-17T01:51:31.809Z,1.17
2023-07-17T01:51:43.745Z,0.95
2023-07-17T01:51:55.775Z,0.80
2023-07-17T01:52:10.085Z,1.10
2023-07-17T01:52:22.065Z,1.17
2023-07-17T01:52:34.049Z,0.95
2023-07-17T01:52:46.030Z,0.98
2023-07-17T01:52:58.106Z,0.80
2023-07-17T01:53:10.206Z,0.90
2023-07-17T01:53:22.750Z,1.00
2023-07-17T01:53:34.823Z,0.97
2023-07-17T01:53:46.805Z,0.93
2023-07-17T01:53:58.882Z,0.80
2023-07-17T01:54:10.900Z,1.20
2023-07-17T01:54:22.909Z,1.00
2023-07-17T01:54:35.009Z,1.27
2023-07-17T01:54:46.944Z,1.02
2023-07-17T01:54:59.436Z,1.15
2023-07-17T01:55:11.422Z,0.88
2023-07-17T01:55:23.414Z,0.90
2023-07-17T01:55:35.403Z,1.30
2023-07-17T01:55:47.804Z,1.00
2023-07-17T01:56:01.528Z,0.70
2023-07-17T01:56:13.869Z,0.60
2023-07-17T01:56:26.403Z,0.65
2023-07-17T01:56:38.516Z,0.90
2023-07-17T01:56:50.512Z,0.90
2023-07-17T01:57:02.486Z,0.82
2023-07-17T01:57:14.496Z,0.90
2023-07-17T01:57:27.009Z,0.98
2023-07-17T01:57:39.329Z,0.80
2023-07-17T01:57:51.373Z,0.90
2023-07-17T01:58:03.372Z,0.73
2023-07-17T01:58:15.609Z,0.90
2023-07-17T01:58:28.007Z,0.90
2023-07-17T01:58:40.022Z,0.93
2023-07-17T01:58:52.206Z,0.60
2023-07-17T01:59:04.154Z,1.40
2023-07-17T01:59:16.082Z,1.50
2023-07-17T01:59:28.165Z,1.08
2023-07-17T01:59:40.157Z,0.82
2023-07-17T01:59:52.709Z,0.90
2023-07-17T02:00:04.975Z,1.02
2023-07-17T02:00:17.194Z,1.27
2023-07-17T02:00:29.203Z,1.63
2023-07-17T02:00:41.851Z,1.00
2023-07-17T02:00:57.467Z,0.80
2023-07-17T02:01:09.417Z,1.20
2023-07-17T02:01:22.579Z,1.38
2023-07-17T02:01:34.959Z,1.55
2023-07-17T02:01:46.947Z,0.85
2023-07-17T02:01:58.918Z,0.75
2023-07-17T02:02:11.093Z,0.73
2023-07-17T02:02:23.124Z,0.77
2023-07-17T02:02:35.212Z,0.82
2023-07-17T02:02:47.201Z,0.73
2023-07-17T02:02:59.333Z,0.73
2023-07-17T02:03:11.757Z,0.75
2023-07-17T02:03:24.086Z,0.90
2023-07-17T02:03:37.387Z,0.77
2023-07-17T02:03:49.628Z,0.60
2023-07-17T02:04:02.430Z,0.60
2023-07-17T02:04:14.634Z,1.20
2023-07-17T02:04:26.601Z,1.33
2023-07-17T02:04:38.649Z,0.68
2023-07-17T02:04:50.770Z,1.00
2023-07-17T02:05:03.481Z,1.08
2023-07-17T02:05:15.593Z,1.10
2023-07-17T02:05:27.702Z,1.10
2023-07-17T02:05:39.707Z,1.02
2023-07-17T02:05:51.799Z,0.95
2023-07-17T02:06:03.933Z,1.52
2023-07-17T02:06:17.897Z,1.40
2023-07-17T02:06:30.034Z,1.20
2023-07-17T02:06:42.144Z,1.17
2023-07-17T02:06:54.377Z,1.38
2023-07-17T02:07:06.462Z,1.65
2023-07-17T02:07:18.447Z,1.50
2023-07-17T02:07:30.510Z,0.55
2023-07-17T02:07:42.441Z,0.85
2023-07-17T02:07:54.423Z,0.70
2023-07-17T02:08:07.593Z,0.80
2023-07-17T02:08:19.588Z,1.08
2023-07-17T02:08:31.518Z,1.80
2023-07-17T02:08:43.449Z,1.60
2023-07-17T02:08:55.757Z,1.40
2023-07-17T02:09:08.135Z,1.00
2023-07-17T02:09:20.182Z,0.88
2023-07-17T02:09:32.248Z,0.77
2023-07-17T02:09:44.209Z,0.85
2023-07-17T02:09:56.177Z,0.90
2023-07-17T02:10:08.538Z,0.68
2023-07-17T02:10:20.526Z,1.47
2023-07-17T02:10:32.590Z,1.67
2023-07-17T02:10:45.415Z,1.20
2023-07-17T02:10:57.470Z,0.88
2023-07-17T02:11:09.818Z,0.77
2023-07-17T02:11:21.970Z,0.85
2023-07-17T02:11:33.955Z,0.77
2023-07-17T02:11:45.940Z,1.08
2023-07-17T02:11:57.956Z,1.20
2023-07-17T02:12:10.194Z,1.15
2023-07-17T02:12:22.223Z,0.88
2023-07-17T02:12:34.336Z,0.82
2023-07-17T02:12:46.303Z,1.00
2023-07-17T02:12:58.371Z,1.17
2023-07-17T02:13:11.433Z,0.80
2023-07-17T02:13:23.354Z,0.85
2023-07-17T02:13:35.299Z,0.85
2023-07-17T02:13:47.543Z,0.80
2023-07-17T02:13:59.516Z,0.73
2023-07-17T02:14:12.058Z,1.27
2023-07-17T02:14:24.100Z,1.40
2023-07-17T02:14:36.182Z,1.40
2023-07-17T02:14:48.206Z,1.23
2023-07-17T02:15:00.299Z,1.70
2023-07-17T02:15:13.741Z,1.42
2023-07-17T02:15:25.732Z,1.25
2023-07-17T02:15:37.783Z,1.00
2023-07-17T02:15:49.777Z,0.90
2023-07-17T02:16:01.866Z,0.73
2023-07-17T02:16:13.855Z,0.70
2023-07-17T02:16:26.818Z,0.77
2023-07-17T02:16:39.042Z,1.13
2023-07-17T02:16:51.111Z,1.13
2023-07-17T02:17:03.206Z,1.30
2023-07-17T02:17:15.279Z,1.30
2023-07-17T02:17:27.515Z,1.17
2023-07-17T02:17:40.161Z,1.58
2023-07-17T02:17:52.725Z,1.40
2023-07-17T02:18:04.882Z,1.25
2023-07-17T02:18:16.929Z,0.60
2023-07-17T02:18:31.137Z,0.70
2023-07-17T02:18:43.101Z,0.70
2023-07-17T02:18:55.103Z,0.70
2023-07-17T02:19:08.067Z,0.65
2023-07-17T02:19:20.247Z,0.75
2023-07-17T02:19:32.211Z,0.63
2023-07-17T02:19:44.131Z,0.70
2023-07-17T02:19:56.045Z,0.75
2023-07-17T02:20:11.700Z,1.20
2023-07-17T02:20:24.390Z,1.38
2023-07-17T02:20:36.685Z,1.05
2023-07-17T02:20:51.981Z,0.73
2023-07-17T02:21:05.338Z,0.70
2023-07-17T02:21:17.594Z,0.70
2023-07-17T02:21:29.769Z,0.98
2023-07-17T02:21:41.725Z,1.13
2023-07-17T02:21:53.686Z,1.05
2023-07-17T02:22:05.871Z,1.00
2023-07-17T02:22:17.841Z,1.63
2023-07-17T02:22:29.830Z,1.50
2023-07-17T02:22:42.305Z,1.33
2023-07-17T02:22:54.398Z,0.80
2023-07-17T02:23:06.480Z,0.98
2023-07-17T02:23:18.910Z,0.90
2023-07-17T02:23:31.312Z,1.00
2023-07-17T02:23:43.284Z,1.05
2023-07-17T02:23:55.349Z,0.95
2023-07-17T02:24:07.356Z,1.63
2023-07-17T02:24:20.224Z,2.00
2023-07-17T02:24:32.291Z,1.77
2023-07-17T02:24:44.288Z,0.75
2023-07-17T02:24:56.282Z,0.75
2023-07-17T02:25:08.917Z,0.90
2023-07-17T02:25:21.145Z,1.00
2023-07-17T02:25:33.115Z,0.93
2023-07-17T02:25:45.408Z,0.88
2023-07-17T02:25:57.732Z,0.60
2023-07-17T02:26:12.161Z,0.60
2023-07-17T02:26:24.323Z,0.85
2023-07-17T02:26:36.285Z,1.20
2023-07-17T02:26:48.712Z,1.13
2023-07-17T02:27:02.506Z,0.75
2023-07-17T02:27:14.430Z,0.77
2023-07-17T02:27:26.787Z,1.13
2023-07-17T02:27:38.803Z,1.73
2023-07-17T02:27:50.829Z,1.55
2023-07-17T02:28:02.818Z,1.45
2023-07-17T02:28:16.484Z,1.10
2023-07-17T02:28:28.717Z,0.90
2023-07-17T02:28:40.681Z,0.88
2023-07-17T02:28:53.066Z,0.80
2023-07-17T02:29:05.347Z,0.80
2023-07-17T02:29:17.362Z,0.80
2023-07-17T02:29:29.871Z,0.73
2023-07-17T02:29:42.497Z,0.77
2023-07-17T02:29:55.278Z,0.68
2023-07-17T02:30:07.700Z,0.60
2023-07-17T02:30:20.202Z,0.65
2023-07-17T02:30:32.329Z,0.93
2023-07-17T02:30:44.394Z,0.77
2023-07-17T02:30:57.110Z,0.75
2023-07-17T02:31:09.121Z,0.73
2023-07-17T02:31:22.804Z,0.90
2023-07-17T02:31:35.571Z,1.20
2023-07-17T02:31:48.720Z,1.10
2023-07-17T02:32:01.060Z,0.98
2023-07-17T02:32:13.377Z,0.82
2023-07-17T02:32:26.141Z,0.60
2023-07-17T02:32:39.042Z,0.60
2023-07-17T02:32:51.062Z,1.00
2023-07-17T02:33:04.183Z,1.20
2023-07-17T02:33:16.233Z,1.08
2023-07-17T02:33:28.342Z,0.90
2023-07-17T02:33:40.270Z,1.17
2023-07-17T02:33:52.241Z,1.77
2023-07-17T02:34:04.569Z,1.85
2023-07-17T02:34:16.675Z,1.70
2023-07-17T02:34:28.663Z,1.50
2023-07-17T02:34:40.586Z,1.45
2023-07-17T02:34:52.642Z,1.10
2023-07-17T02:35:05.652Z,0.82
2023-07-17T02:35:17.680Z,0.68
2023-07-17T02:35:29.759Z,0.70
2023-07-17T02:35:41.755Z,0.80
2023-07-17T02:35:53.694Z,0.80
2023-07-17T02:36:05.963Z,1.10
2023-07-17T02:36:17.958Z,1.00
2023-07-17T02:36:30.163Z,0.80
2023-07-17T02:36:43.338Z,0.80
2023-07-17T02:36:55.371Z,0.77
2023-07-17T02:37:16.802Z,0.80
2023-07-17T02:37:29.023Z,0.70
2023-07-17T02:37:41.605Z,0.68
2023-07-17T02:37:53.709Z,1.35
2023-07-17T02:38:06.566Z,2.20
2023-07-17T02:38:18.562Z,1.50
2023-07-17T02:38:30.968Z,1.20
2023-07-17T02:38:42.925Z,1.00
2023-07-17T02:38:54.962Z,2.17
2023-07-17T02:39:06.962Z,1.90
2023-07-17T02:39:19.070Z,1.02
2023-07-17T02:39:31.016Z,0.68
2023-07-17T02:39:43.340Z,0.88
2023-07-17T02:39:55.381Z,0.80
2023-07-17T02:40:13.411Z,0.80
2023-07-17T02:40:25.454Z,0.70
2023-07-17T02:40:37.718Z,0.70
2023-07-17T02:40:49.633Z,0.73
2023-07-17T02:41:02.126Z,0.82
2023-07-17T02:41:15.738Z,0.63
2023-07-17T02:41:28.080Z,0.60
2023-07-17T02:41:40.102Z,0.60
2023-07-17T02:41:52.223Z,0.70
2023-07-17T02:42:04.869Z,0.52
2023-07-17T02:42:17.092Z,0.60
2023-07-17T02:42:29.049Z,0.63
2023-07-17T02:42:41.227Z,0.90
2023-07-17T02:42:53.220Z,1.10
2023-07-17T02:43:07.398Z,1.58
2023-07-17T02:43:19.389Z,1.27
2023-07-17T02:43:31.414Z,1.20
2023-07-17T02:43:43.467Z,0.98
2023-07-17T02:43:55.493Z,0.85
2023-07-17T02:44:07.424Z,0.70
2023-07-17T02:44:19.521Z,0.68
2023-07-17T02:44:31.546Z,0.85
2023-07-17T02:44:45.137Z,1.00
2023-07-17T02:44:57.084Z,1.60
2023-07-17T02:45:09.919Z,1.60
2023-07-17T02:45:22.004Z,1.00
2023-07-17T02:45:34.358Z,0.95
2023-07-17T02:45:46.882Z,0.73
2023-07-17T02:45:58.910Z,0.90
2023-07-17T02:46:10.972Z,0.80
2023-07-17T02:46:23.074Z,1.00
2023-07-17T02:46:35.186Z,1.00
2023-07-17T02:46:47.208Z,1.08
2023-07-17T02:46:59.113Z,0.93
2023-07-17T02:47:11.390Z,0.93